Time;durP1;ratioP1;P1;durP2;ratioP2;P2;SDS_P1;SDS_P2;PMS_P1;PMS_P2;Temp;Humidity;BMP_temperature;BMP_pressure;BME280_temperature;BME280_humidity;BME280_pressure;Samples;Min_cycle;Max_cycle;Signal;HPM_P1;HPM_P2
2021/03/19 00:00:09;;;;;;;9.83;5.53;;;7.60;99.90;;;7.67;64.95;102064.59;4938161;29;20043;-72
2021/03/19 06:57:11;;;;;;;14.25;6.22;;;9.90;99.90;;;10.79;61.51;102452.19;4949105;28;20093;-72
2021/03/19 06:59:46;;;;;;;15.82;6.20;;;10.50;99.90;;;10.83;60.38;102447.00;4914915;29;20051;-64
2021/03/19 07:02:58;;;;;;;13.27;5.65;;;10.70;99.90;;;11.03;60.07;102438.53;4916580;29;20069;-64
2021/03/19 07:05:45;;;;;;;15.82;6.28;;;10.80;99.90;;;11.26;59.81;102437.22;4916601;29;20074;-64
2021/03/19 07:08:31;;;;;;;14.02;6.45;;;11.10;99.90;;;11.42;58.88;102439.28;4918661;29;20044;-66
2021/03/19 07:11:38;;;;;;;10.23;5.18;;;11.30;99.90;;;11.73;58.57;102436.28;4903563;29;20103;-64
2021/03/19 07:15:01;;;;;;;10.73;5.97;;;11.50;99.90;;;11.61;57.88;102446.66;4919325;29;20135;-64
2021/03/19 07:17:51;;;;;;;14.63;6.70;;;11.50;99.90;;;11.79;58.08;102460.22;4919995;29;20048;-65
2021/03/19 07:20:37;;;;;;;14.60;5.57;;;11.60;99.90;;;11.95;57.34;102450.75;4920295;29;20472;-65
2021/03/19 07:23:15;;;;;;;8.80;5.43;;;11.80;99.90;;;11.38;57.07;102363.25;4920168;29;20058;-64
2021/03/19 07:26:03;;;;;;;14.75;6.43;;;11.80;99.90;;;11.89;57.12;102454.22;4920223;29;20044;-65
2021/03/19 07:29:23;;;;;;;12.27;6.18;;;11.80;99.90;;;11.98;57.38;102457.00;4920294;29;20052;-64
2021/03/19 07:32:37;;;;;;;18.10;6.00;;;11.90;99.90;;;11.97;57.40;102464.94;4920140;29;20055;-65
2021/03/19 07:35:36;;;;;;;14.00;6.72;;;11.90;99.90;;;11.34;56.76;102362.28;4918665;29;20055;-65
2021/03/19 07:38:56;;;;;;;13.35;5.95;;;11.90;99.90;;;12.09;57.04;102475.75;4919359;29;20512;-65
2021/03/19 07:41:53;;;;;;;9.55;5.60;;;12.00;99.90;;;12.38;56.16;102492.97;4919777;29;20056;-65
2021/03/19 07:44:47;;;;;;;11.50;6.15;;;12.20;99.90;;;12.22;56.32;102493.63;4919866;29;20060;-65
2021/03/19 07:47:32;;;;;;;9.95;5.72;;;12.20;99.90;;;12.27;56.46;102478.69;4919700;29;20052;-65
2021/03/19 07:50:21;;;;;;;14.23;6.22;;;12.30;99.90;;;12.40;55.97;102494.78;4919854;29;20131;-65
2021/03/19 07:53:12;;;;;;;13.57;6.05;;;12.40;99.90;;;12.74;55.88;102504.09;4919770;29;20056;-65
2021/03/19 07:55:57;;;;;;;18.60;6.38;;;12.60;99.90;;;13.03;55.34;102505.38;4919481;29;20585;-66
2021/03/19 07:58:44;;;;;;;12.02;6.00;;;12.90;99.90;;;13.13;54.40;102507.28;4919448;29;20044;-65
2021/03/19 08:01:22;;;;;;;13.93;5.45;;;13.10;99.90;;;13.42;53.83;102511.13;4919567;29;20044;-65
2021/03/19 08:03:59;;;;;;;16.00;5.25;;;13.30;99.90;;;13.52;53.13;102513.03;4902127;29;20059;-65
2021/03/19 08:06:35;;;;;;;13.10;5.82;;;13.50;99.90;;;13.47;52.62;102525.34;4919361;29;20434;-65
2021/03/19 08:09:16;;;;;;;10.25;6.60;;;13.40;99.90;;;13.76;52.65;102528.31;4902588;29;20147;-65
2021/03/19 08:11:51;;;;;;;15.82;6.18;;;13.60;99.90;;;13.62;52.02;102510.44;4902392;29;20486;-65
2021/03/19 08:14:48;;;;;;;12.85;5.90;;;13.70;99.90;;;13.86;51.29;102532.81;4919404;29;20119;-65
2021/03/19 08:17:41;;;;;;;15.15;6.80;;;13.80;99.90;;;13.91;51.94;102535.53;4919398;29;20052;-65
2021/03/19 08:20:29;;;;;;;10.82;5.30;;;13.80;99.90;;;13.92;51.08;102542.63;4918743;29;20055;-65
2021/03/19 08:23:06;;;;;;;11.77;5.53;;;13.90;99.90;;;13.72;51.71;102513.22;4919001;29;20052;-64
2021/03/19 08:25:41;;;;;;;15.07;6.78;;;13.90;99.90;;;13.91;51.45;102544.41;4918949;29;20075;-63
2021/03/19 08:28:19;;;;;;;12.55;5.40;;;13.90;99.90;;;14.06;51.28;102546.28;4919247;29;20058;-63
2021/03/19 08:30:54;;;;;;;13.02;5.50;;;13.90;99.90;;;14.08;50.48;102545.44;4919130;29;20060;-63
2021/03/19 08:33:45;;;;;;;13.07;5.30;;;14.00;99.90;;;14.33;50.33;102543.88;4919096;29;20379;-63
2021/03/19 08:36:26;;;;;;;11.52;6.07;;;14.20;99.90;;;14.21;49.90;102557.06;4919052;29;20116;-63
2021/03/19 08:39:00;;;;;;;10.50;5.72;;;14.20;99.90;;;14.15;50.12;102549.06;4919048;29;20055;-64
2021/03/19 08:41:35;;;;;;;9.90;5.95;;;14.10;99.90;;;14.02;49.81;102550.72;4918777;29;20403;-65
2021/03/19 08:44:07;;;;;;;11.35;5.63;;;14.00;99.90;;;13.98;49.53;102550.66;4918746;29;20060;-65
2021/03/19 08:46:42;;;;;;;12.48;5.80;;;14.00;99.90;;;14.24;49.69;102541.13;4918774;29;20075;-66
2021/03/19 08:49:15;;;;;;;9.77;6.05;;;14.20;99.90;;;14.14;48.46;102553.47;4918746;29;20106;-68
2021/03/19 08:51:45;;;;;;;14.10;6.57;;;14.10;99.90;;;14.27;49.62;102552.72;4918662;29;20376;-65
2021/03/19 08:54:24;;;;;;;8.68;5.72;;;14.20;99.90;;;14.36;47.96;102558.09;4918377;29;20048;-64
2021/03/19 08:57:36;;;;;;;9.65;5.22;;;14.30;99.90;;;14.46;47.08;102564.38;4918445;29;20068;-65
2021/03/19 09:00:09;;;;;;;10.52;5.78;;;14.40;99.90;;;14.30;47.22;102554.53;4918128;29;20506;-65
2021/03/19 09:02:53;;;;;;;12.50;6.40;;;14.30;99.90;;;14.78;48.17;102570.81;4918582;29;20059;-66
2021/03/19 09:05:33;;;;;;;10.90;6.25;;;14.60;99.90;;;14.97;46.88;102579.78;4901430;29;20056;-62
2021/03/19 09:08:26;;;;;;;9.88;5.90;;;14.80;99.90;;;14.94;45.53;102575.31;4918371;29;20056;-63
2021/03/19 09:11:19;;;;;;;11.57;6.50;;;14.80;99.90;;;14.87;45.60;102581.50;4901223;29;20056;-62
2021/03/19 09:14:33;;;;;;;8.77;5.93;;;14.80;99.90;;;14.77;44.25;102561.03;4918160;29;20088;-62
2021/03/19 09:17:01;;;;;;;10.57;6.68;;;14.80;99.90;;;14.95;44.56;102592.22;4918328;29;20059;-62
2021/03/19 09:19:59;;;;;;;12.52;6.32;;;14.90;99.90;;;15.20;45.44;102591.44;4918226;29;20406;-61
2021/03/19 09:23:04;;;;;;;11.43;5.85;;;15.00;99.90;;;14.51;43.60;102488.09;4918374;29;20060;-63
2021/03/19 09:25:41;;;;;;;12.63;6.82;;;15.00;99.90;;;14.69;44.04;102586.72;4918148;29;20375;-63
2021/03/19 09:28:58;;;;;;;10.52;6.75;;;14.80;99.90;;;15.02;45.08;102602.91;4917813;29;20471;-62
2021/03/19 09:31:40;;;;;;;12.82;6.63;;;14.80;99.90;;;14.79;44.46;102510.44;4901047;29;20056;-64
2021/03/19 09:34:19;;;;;;;12.85;6.22;;;15.10;99.90;;;15.27;43.51;102604.81;4917687;29;20526;-63
2021/03/19 09:37:29;;;;;;;11.18;6.00;;;15.20;99.90;;;15.10;43.03;102613.59;4917419;29;20485;-63
2021/03/19 09:40:45;;;;;;;10.23;6.18;;;15.10;99.90;;;14.91;42.52;102615.28;4909447;29;20414;-67
2021/03/19 09:43:43;;;;;;;14.20;6.30;;;14.90;99.90;;;14.71;42.94;102618.72;4900702;29;20375;-66
2021/03/19 09:46:28;;;;;;;11.32;6.88;;;14.70;99.90;;;14.27;43.68;102610.34;4917609;29;20056;-65
2021/03/19 09:49:05;;;;;;;13.73;6.72;;;14.30;99.90;;;13.84;44.57;102598.41;4917299;29;20151;-67
2021/03/19 09:51:44;;;;;;;11.30;6.50;;;13.90;99.90;;;13.81;45.14;102624.09;4917458;29;20059;-67
2021/03/19 09:54:36;;;;;;;11.88;7.10;;;13.70;99.90;;;14.15;45.27;102621.78;5123754;27;819147;-66
2021/03/19 09:57:29;;;;;;;9.40;6.05;;;13.90;99.90;;;14.43;44.06;102613.19;5131273;28;20062;-63
2021/03/19 10:00:07;;;;;;;9.52;6.13;;;14.30;99.90;;;15.08;44.49;102626.03;5112684;28;20047;-68
2021/03/19 10:02:40;;;;;;;7.90;5.57;;;14.80;99.90;;;15.25;43.51;102633.22;5130767;28;20051;-63
2021/03/19 10:05:12;;;;;;;9.02;6.50;;;15.10;99.90;;;15.49;43.16;102626.25;5130601;28;20096;-65
2021/03/19 10:07:45;;;;;;;9.40;5.90;;;15.30;99.90;;;15.65;42.07;102625.44;5131077;28;20040;-64
2021/03/19 10:10:26;;;;;;;10.98;5.95;;;15.60;99.90;;;15.43;41.41;102631.59;5112633;28;20048;-64
2021/03/19 10:13:06;;;;;;;12.05;5.78;;;15.40;99.90;;;15.36;41.53;102628.88;5130959;28;20058;-64
2021/03/19 10:15:34;;;;;;;7.60;5.32;;;15.30;99.90;;;15.49;40.95;102636.91;5130928;28;20040;-66
2021/03/19 10:18:07;;;;;;;9.07;6.07;;;15.30;99.90;;;15.41;41.17;102636.84;5112370;28;20039;-64
2021/03/19 10:20:38;;;;;;;9.90;6.22;;;15.40;99.90;;;15.47;41.50;102626.25;5130539;28;20386;-65
2021/03/19 10:23:23;;;;;;;11.23;5.47;;;15.40;99.90;;;15.19;40.79;102633.19;5130567;28;20084;-63
2021/03/19 10:25:52;;;;;;;9.13;5.68;;;15.20;99.90;;;14.71;41.74;102627.59;5130476;28;20127;-64
2021/03/19 10:28:24;;;;;;;8.38;6.00;;;14.70;99.90;;;14.59;42.79;102630.19;5130645;28;20108;-64
2021/03/19 10:31:01;;;;;;;9.38;5.75;;;14.50;99.90;;;14.74;43.23;102632.94;5131013;28;20039;-65
2021/03/19 10:33:36;;;;;;;11.95;6.03;;;14.60;99.90;;;14.79;42.61;102625.88;5130261;28;20156;-62
2021/03/19 10:36:08;;;;;;;10.93;5.38;;;14.70;99.90;;;13.84;42.19;102510.63;5130479;28;20058;-63
2021/03/19 10:38:43;;;;;;;10.07;5.95;;;14.50;99.90;;;14.39;42.72;102631.78;5130925;28;20043;-65
2021/03/19 10:41:27;;;;;;;9.23;5.35;;;14.30;99.90;;;14.53;42.83;102634.56;5130510;28;20051;-63
2021/03/19 10:44:04;;;;;;;8.25;6.18;;;14.40;99.90;;;14.26;41.92;102632.53;5112007;28;20069;-64
2021/03/19 10:46:39;;;;;;;12.63;5.90;;;14.30;99.90;;;14.27;43.75;102637.91;5130272;28;20395;-63
2021/03/19 10:49:15;;;;;;;13.10;6.95;;;14.20;99.90;;;14.39;43.13;102639.78;5130053;28;20171;-62
2021/03/19 10:51:51;;;;;;;9.68;5.90;;;14.30;99.90;;;14.60;42.02;102641.72;5111933;28;20050;-63
2021/03/19 10:54:33;;;;;;;6.78;5.32;;;14.40;99.90;;;14.45;41.00;102643.41;5129764;28;20127;-62
2021/03/19 10:57:16;;;;;;;8.77;5.75;;;14.40;99.90;;;14.55;41.61;102633.72;5130005;28;20075;-64
2021/03/19 10:59:44;;;;;;;8.45;5.55;;;14.50;99.90;;;14.64;41.43;102636.44;5130058;28;20138;-66
2021/03/19 11:02:22;;;;;;;7.83;5.10;;;14.50;99.90;;;14.79;41.08;102633.84;5129908;28;20058;-64
2021/03/19 11:05:11;;;;;;;8.07;4.82;;;14.70;99.90;;;14.74;40.42;102650.69;5121072;28;20061;-65
2021/03/19 11:07:44;;;;;;;7.57;4.88;;;14.70;99.90;;;14.66;41.42;102645.31;5116037;28;20039;-63
2021/03/19 11:10:25;;;;;;;8.70;5.68;;;14.60;99.90;;;14.03;40.59;102519.69;5115942;28;20063;-62
2021/03/19 11:13:25;;;;;;;7.38;5.22;;;14.60;99.90;;;14.87;40.81;102642.81;5097724;28;20092;-62
2021/03/19 11:15:59;;;;;;;8.60;6.03;;;14.70;99.90;;;14.86;41.01;102645.47;5116052;28;20127;-62
2021/03/19 11:18:34;;;;;;;7.38;5.10;;;14.80;99.90;;;14.85;40.75;102639.22;5116063;28;20051;-64
2021/03/19 11:21:28;;;;;;;8.93;5.60;;;14.80;99.90;;;15.21;41.07;102646.56;5097697;28;20046;-65
2021/03/19 11:24:18;;;;;;;9.32;5.40;;;15.00;99.90;;;15.00;39.49;102638.44;5115617;28;20047;-65
2021/03/19 11:26:57;;;;;;;7.28;4.80;;;15.00;99.90;;;14.42;40.19;102616.72;5097511;28;20397;-65
2021/03/19 11:29:30;;;;;;;9.02;4.85;;;14.60;99.90;;;14.18;39.56;102619.16;5115822;28;20052;-66
2021/03/19 11:32:07;;;;;;;11.82;5.22;;;14.30;99.90;;;14.19;41.06;102663.53;5115513;28;20039;-64
2021/03/19 11:34:41;;;;;;;8.25;5.75;;;14.10;99.90;;;14.21;40.23;102655.53;5115371;28;20097;-65
2021/03/19 11:37:31;;;;;;;7.93;5.25;;;14.10;99.90;;;14.19;41.24;102628.91;5115529;28;20044;-64
2021/03/19 11:40:08;;;;;;;11.50;5.80;;;14.20;99.90;;;14.41;40.77;102651.34;5097308;28;20043;-65
2021/03/19 11:42:41;;;;;;;12.93;5.25;;;14.30;99.90;;;13.96;40.90;102565.72;5115246;28;20055;-65
2021/03/19 11:45:08;;;;;;;6.88;4.95;;;14.40;99.90;;;14.75;39.43;102650.69;5307326;22;20198;31
2021/03/19 11:47:39;;;;;;;5.53;4.28;;;14.60;99.90;;;14.14;38.88;102651.94;5012545;28;20050;-67
2021/03/19 11:50:28;;;;;;;6.00;4.80;;;14.20;99.90;;;14.33;39.69;102653.94;5014998;28;20050;-65
2021/03/19 11:52:58;;;;;;;6.00;4.05;;;14.20;99.90;;;14.27;36.42;102660.94;5014257;28;20153;-67
2021/03/19 11:55:31;;;;;;;8.50;4.63;;;14.20;99.90;;;14.30;37.43;102658.34;5014678;28;20045;-65
2021/03/19 11:58:02;;;;;;;5.18;4.68;;;14.20;99.90;;;14.40;37.40;102652.22;5013967;28;20052;-66
2021/03/19 12:00:32;;;;;;;7.68;3.90;;;14.30;99.90;;;14.53;37.21;102656.78;5014540;28;20076;-65
2021/03/19 12:03:06;;;;;;;6.97;5.05;;;14.40;99.90;;;14.48;37.83;102656.72;5014420;28;20100;-66
2021/03/19 12:05:40;;;;;;;5.35;4.80;;;14.40;99.90;;;14.70;37.75;102659.53;5157720;22;20054;31
2021/03/19 12:08:08;;;;;;;6.40;4.63;;;14.50;99.90;;;14.80;37.98;102658.75;4991851;28;20062;-64
2021/03/19 12:10:36;;;;;;;5.07;4.63;;;14.70;99.90;;;14.83;35.79;102618.78;4994995;28;20062;-64
2021/03/19 12:13:07;;;;;;;4.50;4.20;;;14.90;99.90;;;14.82;35.14;102660.53;5171639;22;20499;-63
2021/03/19 12:15:35;;;;;;;5.70;4.20;;;14.70;99.90;;;14.62;35.20;102672.81;4993791;28;20054;-63
2021/03/19 12:18:05;;;;;;;4.38;3.97;;;14.60;99.90;;;14.71;36.55;102666.69;4992776;28;20488;-65
2021/03/19 12:20:35;;;;;;;5.32;4.15;;;14.60;99.90;;;14.80;36.00;102677.38;4993619;28;20050;-65
2021/03/19 12:23:05;;;;;;;4.07;3.67;;;14.70;99.90;;;14.72;34.94;102637.38;4993297;28;20423;-64
2021/03/19 12:25:37;;;;;;;5.10;4.60;;;14.80;99.90;;;14.95;35.59;102645.50;4994448;28;20046;-65
2021/03/19 12:28:06;;;;;;;6.50;4.68;;;15.00;99.90;;;15.20;35.75;102675.00;4994630;28;20038;-63
2021/03/19 12:30:37;;;;;;;5.20;4.70;;;15.10;99.90;;;15.01;34.75;102651.78;4992553;28;20050;-64
2021/03/19 12:33:07;;;;;;;;;;;15.00;99.90;;;14.31;35.04;102626.41;4995074;28;20054;-64
2021/03/19 12:35:41;;;;;;;6.03;4.20;;;14.60;99.90;;;14.40;36.05;102671.72;4994304;28;19925;-64
2021/03/19 12:38:11;;;;;;;6.18;4.82;;;14.30;99.90;;;14.40;36.88;102628.25;4994288;28;20046;-63
2021/03/19 12:40:41;;;;;;;5.30;4.80;;;14.40;99.90;;;14.75;37.06;102649.84;4994271;28;20073;-66
2021/03/19 12:43:11;;;;;;;5.30;4.45;;;14.60;99.90;;;14.80;36.72;102674.72;4994211;28;20050;-67
2021/03/19 12:45:39;;;;;;;8.77;4.10;;;14.70;99.90;;;14.67;36.87;102636.47;4994333;28;20492;-67
